Time;durP1;ratioP1;P1;durP2;ratioP2;P2;SDS_P1;SDS_P2;PMS_P1;PMS_P2;Temp;Humidity;BMP_temperature;BMP_pressure;BME280_temperature;BME280_humidity;BME280_pressure;Samples;Min_cycle;Max_cycle;Signal;HPM_P1;HPM_P2
2023/05/27 00:01:26;;;;;;;0.00;0.00;;;;;;;10.04;61.84;101669.44;6141767;23;20070;-73
2023/05/27 00:03:51;;;;;;;0.00;0.00;;;;;;;10.13;62.45;101689.06;6246287;22;20451;-74
2023/05/27 00:06:16;;;;;;;0.10;0.10;;;;;;;10.10;62.17;101684.91;6146464;23;20092;-75
2023/05/27 00:08:42;;;;;;;0.00;0.00;;;;;;;10.05;62.64;101681.22;6090112;23;20013;-74
2023/05/27 00:11:07;;;;;;;0.00;0.00;;;;;;;9.99;63.19;101680.25;6145396;23;20029;-74
2023/05/27 00:13:33;;;;;;;0.00;0.00;;;;;;;9.94;62.47;101677.34;6140885;23;20309;-74
2023/05/27 00:15:58;;;;;;;0.00;0.00;;;;;;;9.91;63.22;101675.91;6145561;23;20724;-73
2023/05/27 00:18:23;;;;;;;0.00;0.00;;;;;;;9.98;63.45;101675.00;6097005;23;20495;-75
2023/05/27 00:20:49;;;;;;;0.00;0.00;;;;;;;10.01;62.94;101669.06;6142267;23;20019;-73
2023/05/27 00:23:15;;;;;;;0.00;0.00;;;;;;;10.06;62.79;101671.94;6247282;22;20009;-75
2023/05/27 00:25:40;;;;;;;0.05;0.05;;;;;;;10.05;62.85;101675.75;6245361;22;20009;-74
2023/05/27 00:28:06;;;;;;;0.00;0.00;;;;;;;9.96;62.80;101672.50;6146281;23;20013;-74
2023/05/27 00:30:31;;;;;;;0.00;0.00;;;;;;;9.86;63.28;101658.56;6142260;23;20009;-74
2023/05/27 00:32:57;;;;;;;0.00;0.00;;;;;;;9.82;64.07;101652.72;6144494;22;20048;-72
2023/05/27 00:35:22;;;;;;;0.00;0.00;;;;;;;9.82;63.95;101641.78;6121484;22;20013;-76
2023/05/27 00:37:48;;;;;;;0.03;0.03;;;;;;;9.82;64.26;101647.25;6138811;23;20005;-75
2023/05/27 00:40:18;;;;;;;0.00;0.00;;;;;;;9.77;64.43;101652.59;6146306;23;20434;-74
2023/05/27 00:42:44;;;;;;;0.00;0.00;;;;;;;9.70;64.64;101647.19;6120954;23;20332;-74
2023/05/27 00:45:10;;;;;;;0.00;0.00;;;;;;;9.68;64.86;101648.50;6250241;22;20009;-74
2023/05/27 00:47:36;;;;;;;0.00;0.00;;;;;;;9.63;64.54;101651.09;6146765;23;20005;-73
2023/05/27 00:50:03;;;;;;;0.00;0.00;;;;;;;9.54;64.55;101640.47;6089061;23;20017;-73
2023/05/27 00:52:29;;;;;;;0.00;0.00;;;;;;;9.59;65.27;101642.50;6119556;23;20339;-72
2023/05/27 00:54:56;;;;;;;0.00;0.00;;;;;;;9.59;64.75;101635.16;6139103;23;20096;-74
2023/05/27 00:57:22;;;;;;;0.10;0.10;;;;;;;9.56;65.45;101624.72;6119291;23;20036;-74
2023/05/27 00:59:47;;;;;;;0.00;0.00;;;;;;;9.58;65.58;101611.66;6242106;22;20029;-74
2023/05/27 01:02:14;;;;;;;0.00;0.00;;;;;;;9.60;65.85;101614.97;6219998;23;20432;-74
2023/05/27 01:04:39;;;;;;;0.00;0.00;;;;;;;9.57;65.93;101626.34;6146206;23;20066;-74
2023/05/27 01:07:37;;;;;;;0.00;0.00;;;;;;;9.55;66.28;101620.28;6113657;23;20419;-74
2023/05/27 01:10:41;;;;;;;0.00;0.00;;;;;;;9.58;66.76;101610.81;6139190;23;19994;-73
2023/05/27 01:13:09;;;;;;;0.00;0.00;;;;;;;9.65;66.72;101617.03;6117535;23;20455;-74
2023/05/27 01:15:35;;;;;;;0.00;0.00;;;;;;;9.63;66.57;101621.03;6113385;23;20309;-75
2023/05/27 01:18:05;;;;;;;0.00;0.00;;;;;;;9.59;66.71;101623.38;6090590;23;20012;-72
2023/05/27 01:20:32;;;;;;;0.00;0.00;;;;;;;9.45;66.94;101617.28;6139120;23;19997;-74
2023/05/27 01:22:59;;;;;;;0.00;0.00;;;;;;;9.37;67.01;101620.31;6094977;23;20021;-75
2023/05/27 01:25:24;;;;;;;0.00;0.00;;;;;;;9.28;66.91;101616.22;6113706;23;20009;-74
2023/05/27 01:27:52;;;;;;;0.00;0.00;;;;;;;9.24;67.50;101621.28;6145000;23;20006;-76
2023/05/27 01:30:18;;;;;;;0.00;0.00;;;;;;;9.17;67.22;101615.06;6144898;23;20013;-76
2023/05/27 01:33:11;;;;;;;0.00;0.00;;;;;;;9.08;67.36;101609.94;6217224;23;20017;-74
2023/05/27 01:35:42;;;;;;;0.00;0.00;;;;;;;9.03;67.54;101608.94;6139427;23;20001;-74
2023/05/27 01:38:12;;;;;;;0.00;0.00;;;;;;;8.95;67.83;101596.44;6118502;23;20009;-74
2023/05/27 01:40:39;;;;;;;0.00;0.00;;;;;;;8.89;68.38;101589.16;6139314;23;20462;-74
2023/05/27 01:43:06;;;;;;;0.00;0.00;;;;;;;8.87;68.24;101583.09;6143071;23;20598;-75
2023/05/27 01:45:33;;;;;;;0.00;0.00;;;;;;;8.84;68.81;101598.00;6117814;23;20004;-74
2023/05/27 01:47:58;;;;;;;0.00;0.00;;;;;;;8.81;69.11;101590.28;6111896;23;20347;-74
2023/05/27 01:50:24;;;;;;;0.00;0.00;;;;;;;8.80;68.63;101596.78;6220587;23;20010;-74
2023/05/27 01:52:49;;;;;;;0.00;0.00;;;;;;;8.73;69.09;101582.38;6118761;23;20025;-75
2023/05/27 01:55:15;;;;;;;0.00;0.00;;;;;;;8.74;69.28;101589.53;6215922;23;20016;-73
2023/05/27 01:57:40;;;;;;;0.08;0.08;;;;;;;8.78;69.87;101579.84;6144898;23;20074;-73
2023/05/27 02:00:09;;;;;;;0.00;0.00;;;;;;;8.81;69.48;101579.38;6140340;23;20683;-74
2023/05/27 02:02:35;;;;;;;0.00;0.00;;;;;;;8.81;69.63;101582.09;6243686;22;20097;-74
2023/05/27 02:05:00;;;;;;;0.00;0.00;;;;;;;8.81;69.97;101584.00;6114091;23;20048;-74
2023/05/27 02:07:26;;;;;;;0.00;0.00;;;;;;;8.76;70.44;101587.41;6223968;23;20058;-74
2023/05/27 02:09:52;;;;;;;0.00;0.00;;;;;;;8.68;70.27;101574.88;6096239;23;20020;-74
2023/05/27 02:12:17;;;;;;;0.03;0.03;;;;;;;8.64;70.49;101575.56;6112141;23;20005;-74
2023/05/27 02:14:44;;;;;;;0.00;0.00;;;;;;;8.60;70.44;101571.63;6146120;23;20009;-73
2023/05/27 02:17:10;;;;;;;0.00;0.00;;;;;;;8.53;71.01;101575.25;6143016;23;20036;-73
2023/05/27 02:19:36;;;;;;;0.00;0.00;;;;;;;8.47;70.56;101573.44;6118649;23;20006;-75
2023/05/27 02:22:01;;;;;;;0.00;0.00;;;;;;;8.41;71.15;101574.28;6142135;23;20017;-75
2023/05/27 02:24:27;;;;;;;0.00;0.00;;;;;;;8.41;71.42;101573.44;6145251;23;20010;-74
2023/05/27 02:26:52;;;;;;;0.00;0.00;;;;;;;8.39;71.80;101560.03;6116929;23;20336;-74
2023/05/27 02:29:18;;;;;;;0.10;0.10;;;;;;;8.41;71.16;101563.41;6112449;23;20012;-74
2023/05/27 02:31:43;;;;;;;0.00;0.00;;;;;;;8.31;71.68;101557.59;6118127;23;20007;-73
2023/05/27 02:34:08;;;;;;;0.05;0.05;;;;;;;8.30;72.32;101570.38;6242111;22;20025;-74
2023/05/27 02:36:34;;;;;;;0.08;0.08;;;;;;;8.25;71.79;101563.94;6144327;23;20016;-73
2023/05/27 02:39:00;;;;;;;0.00;0.00;;;;;;;8.14;71.91;101563.59;6090548;23;20444;-74
2023/05/27 02:41:26;;;;;;;0.00;0.00;;;;;;;8.10;72.09;101556.91;6118689;23;20001;-73
2023/05/27 02:43:52;;;;;;;0.00;0.00;;;;;;;8.08;72.31;101550.06;6145393;22;20040;-73
2023/05/27 02:46:17;;;;;;;0.00;0.00;;;;;;;8.12;72.27;101549.38;6110589;23;20039;-73
2023/05/27 02:48:42;;;;;;;0.00;0.00;;;;;;;8.18;73.08;101553.94;6247169;22;20088;-74
2023/05/27 02:51:08;;;;;;;0.03;0.03;;;;;;;8.14;72.67;101547.25;6093912;23;20470;-74
2023/05/27 02:53:33;;;;;;;0.00;0.00;;;;;;;8.18;nan;101553.94;6243277;22;20017;-74
2023/05/27 02:55:59;;;;;;;0.00;0.00;;;;;;;8.18;72.33;101555.84;6146438;23;20016;-73
2023/05/27 02:58:24;;;;;;;0.00;0.00;;;;;;;8.13;72.79;101558.38;6139678;23;20310;-76
2023/05/27 03:00:49;;;;;;;0.00;0.00;;;;;;;8.02;72.85;101551.75;6118232;23;20013;-74
2023/05/27 03:03:15;;;;;;;0.10;0.10;;;;;;;7.98;72.81;101551.34;6114350;23;20071;-75
2023/05/27 03:05:40;;;;;;;0.10;0.10;;;;;;;7.88;72.92;101552.91;6144795;23;20317;-73
2023/05/27 03:08:06;;;;;;;0.00;0.00;;;;;;;7.84;73.66;101558.81;6246915;22;20012;-74
2023/05/27 03:10:32;;;;;;;0.00;0.00;;;;;;;7.78;73.29;101553.38;6192524;23;20012;-74
2023/05/27 03:12:58;;;;;;;0.00;0.00;;;;;;;7.75;73.54;101549.22;6248731;22;20013;-74
2023/05/27 03:15:23;;;;;;;0.00;0.00;;;;;;;7.72;73.31;101549.66;6137758;23;20033;-73
2023/05/27 03:17:49;;;;;;;0.00;0.00;;;;;;;7.71;73.91;101558.91;6145634;22;20323;-75
2023/05/27 03:20:16;;;;;;;0.00;0.00;;;;;;;7.68;73.67;101553.88;6109507;23;20010;-74
2023/05/27 03:22:42;;;;;;;0.00;0.00;;;;;;;7.69;74.67;101558.25;6143757;23;20029;-75
2023/05/27 03:25:08;;;;;;;0.00;0.00;;;;;;;7.63;73.88;101561.88;6144577;23;20450;-74
2023/05/27 03:27:34;;;;;;;0.00;0.00;;;;;;;7.58;74.49;101542.63;6112719;23;20029;-74
2023/05/27 03:29:59;;;;;;;0.10;0.10;;;;;;;7.60;74.21;101545.97;6120437;23;20005;-73
2023/05/27 03:32:25;;;;;;;0.00;0.00;;;;;;;7.54;74.18;101546.84;6216125;22;20014;-73
2023/05/27 03:34:50;;;;;;;0.00;0.00;;;;;;;7.56;74.58;101550.19;6144098;23;20010;-72
2023/05/27 03:37:16;;;;;;;0.00;0.00;;;;;;;7.54;74.87;101547.69;6119410;22;20013;-72
2023/05/27 03:39:41;;;;;;;0.00;0.00;;;;;;;7.54;73.76;101546.84;6120807;22;20027;-72
2023/05/27 03:42:07;;;;;;;0.00;0.00;;;;;;;7.43;74.33;101530.16;6095317;23;20063;-72
2023/05/27 03:44:32;;;;;;;0.00;0.00;;;;;;;7.49;74.64;101542.03;6119286;22;20340;-72
2023/05/27 03:46:58;;;;;;;0.00;0.00;;;;;;;7.47;74.52;101536.81;6145629;23;20078;-73
2023/05/27 03:49:23;;;;;;;0.00;0.00;;;;;;;7.40;74.27;101536.00;6142469;23;20009;-74
2023/05/27 03:51:49;;;;;;;0.00;0.00;;;;;;;7.39;74.90;101539.81;6095460;23;20009;-74
2023/05/27 03:54:14;;;;;;;0.00;0.00;;;;;;;7.40;75.11;101546.91;6222143;23;20013;-74
2023/05/27 03:56:40;;;;;;;0.00;0.00;;;;;;;7.37;75.27;101539.19;6140323;23;20040;-74
2023/05/27 03:59:06;;;;;;;0.00;0.00;;;;;;;7.33;75.16;101535.25;6248771;22;20002;-74
2023/05/27 04:01:32;;;;;;;0.00;0.00;;;;;;;7.33;75.24;101535.25;6113964;23;20009;-74
2023/05/27 04:03:59;;;;;;;0.00;0.00;;;;;;;7.32;75.39;101530.84;6119886;23;20615;-74
2023/05/27 04:06:25;;;;;;;0.00;0.00;;;;;;;7.33;75.12;101524.34;6218437;23;20021;-73
2023/05/27 04:08:51;;;;;;;0.00;0.00;;;;;;;7.40;75.79;101530.56;6246416;22;20040;-74
2023/05/27 04:11:18;;;;;;;0.00;0.00;;;;;;;7.42;75.61;101536.66;6096129;23;20002;-74
2023/05/27 04:13:43;;;;;;;0.00;0.00;;;;;;;7.45;75.60;101536.22;6141587;23;20642;-75
2023/05/27 04:16:10;;;;;;;0.00;0.00;;;;;;;7.49;75.87;101540.16;6145884;23;20055;-73
2023/05/27 04:18:35;;;;;;;0.00;0.00;;;;;;;7.47;75.63;101527.81;6140569;23;20010;-72
2023/05/27 04:21:01;;;;;;;0.00;0.00;;;;;;;7.50;76.25;101514.63;6146691;23;20093;-73
2023/05/27 04:23:26;;;;;;;0.00;0.00;;;;;;;7.62;75.90;101536.53;6146961;23;20420;-73
2023/05/27 04:25:52;;;;;;;0.08;0.08;;;;;;;7.69;75.89;101533.75;6115753;23;20010;-73
2023/05/27 04:28:21;;;;;;;0.00;0.00;;;;;;;7.65;76.06;101521.63;6120035;23;20080;-73
2023/05/27 04:30:48;;;;;;;0.00;0.00;;;;;;;7.77;75.72;101530.78;6115360;23;20076;-73
2023/05/27 04:33:15;;;;;;;0.00;0.00;;;;;;;7.80;76.31;101535.78;6120143;22;20088;-74
2023/05/27 04:35:43;;;;;;;0.00;0.00;;;;;;;7.78;76.31;101532.47;6141009;23;20013;-73
2023/05/27 04:38:16;;;;;;;0.00;0.00;;;;;;;7.81;76.46;101537.47;6246796;22;20025;-72
2023/05/27 04:40:44;;;;;;;0.00;0.00;;;;;;;7.76;76.26;101529.09;6116945;23;20006;-74
2023/05/27 04:43:13;;;;;;;0.00;0.00;;;;;;;7.83;76.95;101534.50;6095607;23;20009;-75
2023/05/27 04:45:39;;;;;;;0.00;0.00;;;;;;;7.81;76.91;101537.47;6116754;23;20032;-73
2023/05/27 04:48:06;;;;;;;0.10;0.10;;;;;;;7.88;76.98;101542.03;6119715;23;20009;-72
2023/05/27 04:50:31;;;;;;;0.00;0.00;;;;;;;7.89;77.19;101549.16;6246618;22;20012;-73
2023/05/27 04:52:57;;;;;;;0.00;0.00;;;;;;;7.96;76.99;101549.94;6140221;23;20009;-74
2023/05/27 04:55:22;;;;;;;0.00;0.00;;;;;;;7.97;76.60;101546.13;6146018;23;20472;-75
2023/05/27 04:57:57;;;;;;;0.00;0.00;;;;;;;7.99;77.08;101539.41;6244119;22;20032;-74
2023/05/27 05:03:20;;;;;;;0.00;0.00;;;;;;;8.10;77.02;101546.03;6119713;23;20039;-74
2023/05/27 05:05:46;;;;;;;0.00;0.00;;;;;;;8.02;77.22;101527.25;6240549;22;20135;-73
2023/05/27 05:08:15;;;;;;;0.10;0.10;;;;;;;8.07;76.90;101535.56;6091760;23;20180;-74
2023/05/27 05:10:40;;;;;;;0.00;0.00;;;;;;;8.13;77.29;101540.16;6121493;23;20127;-73
2023/05/27 05:13:05;;;;;;;0.00;0.00;;;;;;;8.00;76.95;101523.91;6219537;23;20420;-74
2023/05/27 05:15:31;;;;;;;0.00;0.00;;;;;;;8.21;76.79;101558.94;6247937;22;20009;-73
2023/05/27 05:17:59;;;;;;;0.00;0.00;;;;;;;8.23;76.68;101549.72;6223697;23;20412;-74
2023/05/27 05:20:36;;;;;;;0.00;0.00;;;;;;;8.16;76.85;101531.53;6217250;23;20009;-74
2023/05/27 05:23:04;;;;;;;0.00;0.00;;;;;;;8.27;76.92;101534.59;6192014;22;20013;-73
2023/05/27 05:25:30;;;;;;;0.00;0.00;;;;;;;8.41;76.83;101557.09;6142718;23;20010;-74
2023/05/27 05:27:56;;;;;;;0.00;0.00;;;;;;;8.43;76.34;101544.91;6094981;23;20020;-73
2023/05/27 05:30:29;;;;;;;0.00;0.00;;;;;;;8.40;76.22;101537.19;6117083;23;20025;-73
2023/05/27 05:32:54;;;;;;;0.10;0.10;;;;;;;8.53;76.29;101541.72;6094992;23;20091;-74
2023/05/27 05:35:20;;;;;;;0.00;0.00;;;;;;;8.65;76.62;101547.25;6139888;23;20013;-76
2023/05/27 05:37:53;;;;;;;0.00;0.00;;;;;;;8.77;76.51;101539.97;6221162;23;20082;-75
2023/05/27 05:40:21;;;;;;;0.00;0.00;;;;;;;8.94;75.75;101533.94;6089417;23;20092;-75
2023/05/27 05:42:54;;;;;;;0.00;0.00;;;;;;;9.13;76.04;101532.84;6245966;22;20012;-76
2023/05/27 05:45:22;;;;;;;0.08;0.08;;;;;;;9.40;75.32;101548.88;6115077;23;20009;-76
2023/05/27 05:47:47;;;;;;;0.00;0.00;;;;;;;9.68;75.21;101550.16;6094452;23;20015;-75
2023/05/27 05:50:13;;;;;;;0.00;0.00;;;;;;;10.07;73.93;101572.47;6143021;23;20005;-76
2023/05/27 05:52:38;;;;;;;0.00;0.00;;;;;;;10.28;73.96;101571.94;6138259;23;20009;-76
2023/05/27 05:55:05;;;;;;;0.03;0.03;;;;;;;10.23;73.55;101525.31;6117265;23;20031;-74
2023/05/27 05:57:34;;;;;;;0.00;0.00;;;;;;;10.74;73.05;101568.63;6118948;23;20016;-74
2023/05/27 05:59:59;;;;;;;0.00;0.00;;;;;;;10.86;72.42;101560.41;6190770;23;20013;-74
2023/05/27 06:02:27;;;;;;;0.00;0.00;;;;;;;11.09;71.47;101560.38;6247019;22;20013;-74
2023/05/27 06:04:53;;;;;;;0.00;0.00;;;;;;;11.34;70.77;101565.53;6113541;23;20025;-75
2023/05/27 06:07:18;;;;;;;0.00;0.00;;;;;;;11.52;70.94;101569.16;6118044;23;20493;-76
2023/05/27 06:09:44;;;;;;;0.00;0.00;;;;;;;11.61;70.32;101539.44;6139562;23;20062;-75
2023/05/27 06:12:12;;;;;;;0.00;0.00;;;;;;;11.94;69.63;101571.59;6118139;23;19994;-73
2023/05/27 06:14:39;;;;;;;0.00;0.00;;;;;;;12.08;69.91;101560.34;6141708;22;20024;-73
2023/05/27 06:17:10;;;;;;;0.00;0.00;;;;;;;12.14;69.27;101542.88;6118283;23;20321;-74
2023/05/27 06:19:37;;;;;;;0.00;0.00;;;;;;;12.25;68.31;101555.69;6247655;22;20027;-74
2023/05/27 06:22:05;;;;;;;0.00;0.00;;;;;;;12.34;68.11;101547.88;6195802;23;20009;-74
2023/05/27 06:24:30;;;;;;;0.00;0.00;;;;;;;12.38;68.66;101529.81;6124934;23;20320;-76
2023/05/27 06:26:58;;;;;;;0.00;0.00;;;;;;;12.60;67.52;101535.38;6146438;23;20001;-75
2023/05/27 06:29:24;;;;;;;0.00;0.00;;;;;;;12.92;67.73;101548.41;6246035;22;20013;-74
2023/05/27 06:31:54;;;;;;;0.00;0.00;;;;;;;12.92;67.03;101531.94;6113416;23;20031;-74
2023/05/27 06:34:22;;;;;;;0.00;0.00;;;;;;;13.10;66.66;101534.38;6142561;22;20463;-72
2023/05/27 06:36:48;;;;;;;0.00;0.00;;;;;;;13.16;66.13;101515.22;6140117;22;20013;-74
2023/05/27 06:39:23;;;;;;;0.00;0.00;;;;;;;13.26;66.24;101510.66;6244796;22;20009;-74
2023/05/27 06:41:49;;;;;;;0.00;0.00;;;;;;;13.29;66.21;101525.81;6141408;23;20053;-75
2023/05/27 06:44:20;;;;;;;0.00;0.00;;;;;;;13.29;66.17;101523.06;6113448;23;20014;-74
2023/05/27 06:46:48;;;;;;;0.00;0.00;;;;;;;13.17;66.12;101506.72;6117828;23;20032;-74
2023/05/27 06:49:14;;;;;;;0.00;0.00;;;;;;;13.31;65.70;101504.41;6138654;23;20005;-76
2023/05/27 06:51:41;;;;;;;0.00;0.00;;;;;;;13.61;65.00;101533.31;6116623;23;20109;-74
2023/05/27 06:54:12;;;;;;;0.00;0.00;;;;;;;13.84;64.54;101523.91;6144963;23;20055;-74
2023/05/27 06:56:37;;;;;;;0.00;0.00;;;;;;;14.18;63.90;101531.06;6240226;22;20081;-74
2023/05/27 06:59:05;;;;;;;0.00;0.00;;;;;;;14.39;62.96;101521.84;6144398;23;20037;-74
2023/05/27 07:01:33;;;;;;;0.08;0.08;;;;;;;14.74;62.36;101533.41;6240334;22;20016;-75
2023/05/27 07:04:10;;;;;;;0.00;0.00;;;;;;;14.84;61.53;101528.75;6222198;23;20081;-74
2023/05/27 07:06:37;;;;;;;0.00;0.00;;;;;;;14.79;60.99;101516.88;6138895;23;20028;-75
2023/05/27 07:09:05;;;;;;;0.00;0.00;;;;;;;14.72;61.26;101502.53;6145267;22;20032;-74
2023/05/27 07:11:32;;;;;;;0.00;0.00;;;;;;;14.91;60.73;101517.50;6113215;23;20016;-74
2023/05/27 07:13:59;;;;;;;0.00;0.00;;;;;;;14.92;60.44;101507.31;6117825;23;20602;-75
2023/05/27 07:16:25;;;;;;;0.00;0.00;;;;;;;14.99;60.18;101524.41;6108532;23;20432;-76
2023/05/27 07:18:53;;;;;;;0.00;0.00;;;;;;;14.86;59.69;101508.41;6118389;23;20009;-74
2023/05/27 07:21:21;;;;;;;0.00;0.00;;;;;;;14.88;59.79;101511.69;6144869;23;20036;-75
2023/05/27 07:23:46;;;;;;;0.00;0.00;;;;;;;15.03;59.48;101505.44;6113870;23;20011;-75
2023/05/27 07:26:14;;;;;;;0.00;0.00;;;;;;;15.24;59.16;101500.81;6220969;23;20420;-75
2023/05/27 07:28:40;;;;;;;0.00;0.00;;;;;;;15.51;58.97;101515.22;6139959;23;20037;-75
2023/05/27 07:31:12;;;;;;;0.00;0.00;;;;;;;15.65;58.56;101499.00;6118050;23;20447;-75
2023/05/27 07:33:42;;;;;;;0.00;0.00;;;;;;;15.78;58.01;101496.78;6233011;22;20075;-75
2023/05/27 07:36:10;;;;;;;0.00;0.00;;;;;;;16.03;57.49;101493.22;6112476;23;20088;-76
2023/05/27 07:38:55;;;;;;;0.00;0.00;;;;;;;16.26;56.79;101496.50;6084352;23;20018;-76
2023/05/27 07:41:22;;;;;;;0.00;0.00;;;;;;;16.31;56.39;101505.63;6114681;23;20009;-75
2023/05/27 07:43:49;;;;;;;0.00;0.00;;;;;;;16.38;56.07;101488.75;6110974;23;20014;-75
2023/05/27 07:46:22;;;;;;;0.00;0.00;;;;;;;16.29;55.90;101471.13;6113748;23;20016;-75
2023/05/27 07:48:55;;;;;;;0.00;0.00;;;;;;;16.45;55.56;101472.72;6089773;23;20041;-74
2023/05/27 07:51:21;;;;;;;0.00;0.00;;;;;;;16.82;54.87;101488.09;6112087;23;20056;-77
2023/05/27 07:53:48;;;;;;;0.00;0.00;;;;;;;16.85;54.45;101482.00;6115882;23;20006;-75
2023/05/27 07:56:16;;;;;;;0.00;0.00;;;;;;;16.96;54.50;101504.06;6110457;23;20006;-73
2023/05/27 07:58:54;;;;;;;;;;;;;;;;;;;;;
2023/05/27 08:01:20;;;;;;;0.00;0.00;;;;;;;16.77;54.46;101490.03;6114018;23;20096;-77
2023/05/27 08:03:48;;;;;;;0.00;0.00;;;;;;;16.80;54.02;101495.00;6117319;23;20046;-74
2023/05/27 08:06:17;;;;;;;0.00;0.00;;;;;;;16.90;53.68;101489.47;6110009;23;20017;-75
2023/05/27 08:08:47;;;;;;;0.00;0.00;;;;;;;17.10;53.56;101486.59;6115999;23;20036;-74
2023/05/27 08:11:26;;;;;;;0.00;0.00;;;;;;;17.32;52.87;101501.13;6113847;23;19998;-75
2023/05/27 08:13:54;;;;;;;0.00;0.00;;;;;;;17.06;53.14;101468.09;6118825;23;20013;-76
2023/05/27 08:16:19;;;;;;;0.00;0.00;;;;;;;16.96;53.25;101468.16;6089348;23;20087;-75
2023/05/27 08:18:45;;;;;;;0.00;0.00;;;;;;;17.02;53.19;101478.06;6113174;23;20085;-76
2023/05/27 08:21:10;;;;;;;0.00;0.00;;;;;;;16.99;53.32;101475.88;6091936;23;20384;-75
2023/05/27 08:23:38;;;;;;;0.00;0.00;;;;;;;16.95;53.03;101485.84;6110990;23;20033;-76
2023/05/27 08:26:06;;;;;;;0.00;0.00;;;;;;;16.75;53.34;101465.47;6092363;23;20006;-75
2023/05/27 08:28:34;;;;;;;0.00;0.00;;;;;;;16.69;53.41;101470.19;6112213;23;20056;-76
2023/05/27 08:31:00;;;;;;;0.00;0.00;;;;;;;16.46;54.03;101463.34;6092320;23;20009;-76
2023/05/27 08:33:26;;;;;;;0.00;0.00;;;;;;;16.30;54.51;101464.50;6086422;22;20065;-75
2023/05/27 08:38:50;;;;;;;;;;;;;;;;;;;;;
2023/05/27 08:41:27;;;;;;;0.00;0.00;;;;;;;16.41;54.99;101460.59;6115344;23;20580;-77
2023/05/27 08:43:56;;;;;;;0.00;0.00;;;;;;;16.51;55.11;101449.50;6113153;23;20019;-75
2023/05/27 08:46:22;;;;;;;0.00;0.00;;;;;;;16.61;55.07;101450.59;6115472;23;20009;-75
2023/05/27 08:48:49;;;;;;;0.00;0.00;;;;;;;16.67;54.78;101457.75;6092308;23;20092;-75
2023/05/27 08:51:20;;;;;;;0.00;0.00;;;;;;;16.78;54.16;101459.38;6112430;23;20013;-76
2023/05/27 08:53:47;;;;;;;0.00;0.00;;;;;;;16.78;54.08;101442.81;6092923;23;20010;-77
2023/05/27 08:56:18;;;;;;;0.00;0.00;;;;;;;16.94;53.66;101446.34;6113621;23;20010;-75
2023/05/27 08:58:49;;;;;;;0.00;0.00;;;;;;;17.17;53.96;101455.91;6113920;23;20002;-76
2023/05/27 09:01:18;;;;;;;0.00;0.00;;;;;;;17.25;53.81;101441.44;6112490;23;20140;-76
2023/05/27 09:03:45;;;;;;;0.00;0.00;;;;;;;17.33;53.20;101431.72;6115042;23;20320;-76
2023/05/27 09:06:28;;;;;;;0.00;0.00;;;;;;;17.40;53.13;101436.94;6110705;23;20005;-76
2023/05/27 09:08:56;;;;;;;0.00;0.00;;;;;;;17.55;52.43;101445.13;6114466;23;20048;-75
2023/05/27 09:11:34;;;;;;;0.00;0.00;;;;;;;17.66;52.77;101450.56;6111065;23;20001;-74
2023/05/27 09:14:01;;;;;;;0.00;0.00;;;;;;;17.71;53.07;101453.28;6115638;23;20006;-74
2023/05/27 09:16:27;;;;;;;0.00;0.00;;;;;;;17.69;52.86;101447.22;6113294;23;20017;-75
2023/05/27 09:18:52;;;;;;;0.00;0.00;;;;;;;17.71;52.46;101442.22;6114700;23;20543;-75
2023/05/27 09:21:18;;;;;;;0.00;0.00;;;;;;;17.99;51.99;101448.09;6117052;23;20010;-75
2023/05/27 09:23:46;;;;;;;0.00;0.00;;;;;;;18.02;51.70;101430.91;6087378;23;20324;-75
2023/05/27 09:26:12;;;;;;;0.00;0.00;;;;;;;18.23;51.67;101440.66;6114028;23;20290;-75
2023/05/27 09:28:40;;;;;;;0.00;0.00;;;;;;;18.37;51.20;101426.09;6112390;23;20380;-75
2023/05/27 09:31:07;;;;;;;0.00;0.00;;;;;;;18.55;49.87;101441.97;6115555;23;19998;-75
2023/05/27 09:33:38;;;;;;;0.00;0.00;;;;;;;18.60;49.50;101430.00;6087574;22;20079;-74
2023/05/27 09:36:04;;;;;;;0.00;0.00;;;;;;;18.76;49.47;101444.47;6116042;23;20012;-75
2023/05/27 09:38:52;;;;;;;0.00;0.00;;;;;;;18.70;48.76;101417.97;6112436;23;20436;-75
2023/05/27 09:41:23;;;;;;;0.00;0.00;;;;;;;18.93;48.64;101430.16;6114815;23;20009;-76
2023/05/27 09:43:55;;;;;;;0.00;0.00;;;;;;;18.97;48.19;101418.19;6110660;23;20424;-75
2023/05/27 09:46:33;;;;;;;0.00;0.00;;;;;;;19.05;47.82;101402.00;6114117;23;20006;-75
2023/05/27 09:48:59;;;;;;;0.00;0.00;;;;;;;19.25;47.45;101401.69;6116025;23;20006;-75
2023/05/27 09:51:28;;;;;;;0.00;0.00;;;;;;;19.40;47.02;101397.03;6111322;23;20009;-75
2023/05/27 09:53:58;;;;;;;0.00;0.00;;;;;;;19.51;46.36;101390.19;6114452;23;20044;-76
2023/05/27 09:56:31;;;;;;;0.00;0.00;;;;;;;19.74;45.64;101418.09;6108922;23;20026;-75
2023/05/27 09:58:57;;;;;;;0.00;0.00;;;;;;;19.81;45.75;101407.44;6115381;23;19998;-74
2023/05/27 10:01:31;;;;;;;0.00;0.00;;;;;;;20.08;45.28;101403.06;6110990;23;20006;-73
2023/05/27 10:04:02;;;;;;;;;;;;;;;20.39;44.65;101411.63;6112389;23;20045;-75
2023/05/27 10:06:40;;;;;;;0.00;0.00;;;;;;;20.57;43.96;101402.38;6107124;23;19970;-76
2023/05/27 10:09:09;;;;;;;0.00;0.00;;;;;;;20.73;43.28;101382.59;6115940;23;20001;-76
2023/05/27 10:11:36;;;;;;;0.00;0.00;;;;;;;21.08;42.47;101406.00;6109579;23;20005;-76
2023/05/27 10:14:03;;;;;;;0.00;0.00;;;;;;;21.27;42.11;101374.41;6116805;23;20017;-76
2023/05/27 10:16:38;;;;;;;0.00;0.00;;;;;;;21.66;41.32;101403.53;6108508;23;20006;-77
2023/05/27 10:19:09;;;;;;;0.00;0.00;;;;;;;21.65;41.28;101387.94;6089003;23;20336;-76
2023/05/27 10:21:43;;;;;;;0.00;0.00;;;;;;;22.04;41.45;101396.69;6110683;23;20013;-77
2023/05/27 10:24:14;;;;;;;0.00;0.00;;;;;;;22.31;41.01;101390.06;6090608;23;20022;-75
2023/05/27 10:26:43;;;;;;;0.00;0.00;;;;;;;22.58;41.35;101377.06;6108943;23;20421;-78
2023/05/27 10:29:13;;;;;;;0.00;0.00;;;;;;;23.14;40.78;101397.69;6114011;23;20006;-77
2023/05/27 10:31:49;;;;;;;0.00;0.00;;;;;;;23.39;40.25;101399.94;6087535;23;20014;-75
2023/05/27 10:34:15;;;;;;;0.00;0.00;;;;;;;23.37;39.21;101389.13;6142627;22;20552;-75
2023/05/27 10:36:41;;;;;;;0.00;0.00;;;;;;;23.36;38.33;101379.09;6142918;23;20005;-75
2023/05/27 10:39:20;;;;;;;0.00;0.00;;;;;;;23.32;38.29;101367.78;6138802;23;20075;-75
2023/05/27 10:41:53;;;;;;;0.00;0.00;;;;;;;23.64;38.55;101382.34;6144126;23;20352;-75
2023/05/27 10:44:36;;;;;;;0.00;0.00;;;;;;;23.86;38.46;101384.13;6116658;23;20017;-80
2023/05/27 10:47:09;;;;;;;0.00;0.00;;;;;;;24.13;38.67;101378.44;6217554;23;20005;-76
2023/05/27 10:49:41;;;;;;;0.00;0.00;;;;;;;24.57;38.58;101377.06;6113228;23;20375;-75
2023/05/27 10:52:12;;;;;;;0.00;0.00;;;;;;;25.04;38.19;101350.91;6145670;23;19997;-75
2023/05/27 10:54:41;;;;;;;0.00;0.00;;;;;;;25.75;37.16;101367.84;6239070;22;20033;-75
2023/05/27 10:57:07;;;;;;;0.00;0.00;;;;;;;26.55;35.95;101372.09;6117764;23;20020;-76
2023/05/27 10:59:52;;;;;;;0.00;0.00;;;;;;;27.54;34.15;101365.38;6112827;23;20005;-77
2023/05/27 11:02:23;;;;;;;0.00;0.00;;;;;;;28.59;32.25;101344.31;6146293;23;20052;-76
2023/05/27 11:04:50;;;;;;;0.00;0.00;;;;;;;30.17;30.12;101349.41;6116695;23;20450;-77
2023/05/27 11:07:20;;;;;;;0.00;0.00;;;;;;;31.77;27.62;101359.53;6119977;23;20035;-76
2023/05/27 11:09:51;;;;;;;0.00;0.00;;;;;;;33.39;25.28;101354.88;6140778;23;20001;-76
2023/05/27 11:12:18;;;;;;;0.00;0.00;;;;;;;34.88;23.80;101342.22;6143221;23;20006;-77
2023/05/27 11:14:50;;;;;;;0.00;0.00;;;;;;;36.41;21.63;101331.41;6141057;23;20005;-75
2023/05/27 11:17:17;;;;;;;0.00;0.00;;;;;;;37.77;20.45;101325.09;6118858;23;20337;-76
2023/05/27 11:19:54;;;;;;;;;;;;;;;;;;;;;
2023/05/27 11:22:20;;;;;;;0.00;0.00;;;;;;;39.70;17.67;101313.75;6146499;23;20084;-73
2023/05/27 11:24:59;;;;;;;0.00;0.00;;;;;;;40.85;17.06;101308.97;6247003;22;20005;-77
2023/05/27 11:27:33;;;;;;;0.00;0.00;;;;;;;42.27;16.43;101309.66;6117280;23;20134;-76
2023/05/27 11:29:59;;;;;;;0.00;0.00;;;;;;;42.88;15.67;101313.09;6139137;23;20051;-74
2023/05/27 11:32:42;;;;;;;0.00;0.00;;;;;;;43.14;14.18;101307.97;6155700;22;20034;-77
2023/05/27 11:36:30;;;;;;;;;;;;;;;;;;;;;
2023/05/27 11:38:54;;;;;;;0.00;0.00;;;;;;;44.89;13.67;101303.63;6072173;23;20018;-73
2023/05/27 11:41:26;;;;;;;0.00;0.00;;;;;;;45.82;13.39;101282.94;6078698;23;20081;-73
2023/05/27 11:44:01;;;;;;;0.00;0.00;;;;;;;46.92;13.00;101274.44;6053554;23;21037;-74
2023/05/27 11:46:54;;;;;;;0.00;0.00;;;;;;;47.91;12.51;101265.28;6052900;23;20356;-74